createdAt,value
2023-02-27T00:04:14.934Z,-0.41
2023-02-27T00:09:18.052Z,-0.41
2023-02-27T00:14:21.157Z,-0.40
2023-02-27T00:19:24.157Z,-0.40
2023-02-27T00:24:27.258Z,-0.41
2023-02-27T00:29:30.360Z,-0.39
2023-02-27T00:34:33.567Z,-0.39
2023-02-27T00:39:36.776Z,-0.41
2023-02-27T00:44:41.110Z,-0.43
2023-02-27T00:49:44.155Z,-0.45
2023-02-27T00:54:47.222Z,-0.46
2023-02-27T00:59:50.322Z,-0.47
2023-02-27T01:04:53.337Z,-0.48
2023-02-27T01:09:56.639Z,-0.49
2023-02-27T01:14:59.544Z,-0.51
2023-02-27T01:20:04.092Z,-0.51
2023-02-27T01:25:08.199Z,-0.52
2023-02-27T01:30:12.848Z,-0.54
2023-02-27T01:35:16.373Z,-0.56
2023-02-27T01:40:19.833Z,-0.60
2023-02-27T01:45:35.875Z,-0.64
2023-02-27T01:50:45.855Z,-0.68
2023-02-27T01:55:49.988Z,-0.72
2023-02-27T02:00:53.668Z,-0.75
2023-02-27T02:05:58.680Z,-0.77
2023-02-27T02:11:03.618Z,-0.78
2023-02-27T02:16:38.167Z,-0.78
2023-02-27T02:21:53.435Z,-0.78
2023-02-27T02:27:21.118Z,-0.78
2023-02-27T02:32:43.172Z,-0.77
2023-02-27T02:38:24.577Z,-0.77
2023-02-27T02:43:46.730Z,-0.77
2023-02-27T02:49:14.099Z,-0.75
2023-02-27T02:54:31.232Z,-0.76
2023-02-27T02:59:43.044Z,-0.71
2023-02-27T03:04:59.244Z,-0.70
2023-02-27T03:10:27.755Z,-0.72
2023-02-27T03:15:40.001Z,-0.73
2023-02-27T03:20:49.709Z,-0.74
2023-02-27T03:25:54.564Z,-0.74
2023-02-27T03:31:10.150Z,-0.76
2023-02-27T03:36:49.427Z,-0.79
2023-02-27T03:42:22.636Z,-0.82
2023-02-27T03:47:26.064Z,-0.88
2023-02-27T03:52:30.588Z,-0.93
2023-02-27T03:57:36.772Z,-0.99
2023-02-27T04:02:42.156Z,-1.05
2023-02-27T04:07:57.109Z,-1.11
2023-02-27T04:13:41.894Z,-1.17
2023-02-27T04:19:04.758Z,-1.24
2023-02-27T04:24:25.989Z,-1.31
2023-02-27T04:29:51.010Z,-1.36
2023-02-27T04:34:59.856Z,-1.43
2023-02-27T04:40:10.654Z,-1.49
2023-02-27T04:45:18.870Z,-1.59
2023-02-27T04:50:37.436Z,-1.69
2023-02-27T04:55:47.808Z,-1.78
2023-02-27T05:00:57.288Z,-1.83
2023-02-27T05:06:01.920Z,-1.84
2023-02-27T05:11:07.885Z,-1.84
2023-02-27T05:16:33.479Z,-1.86
2023-02-27T05:21:59.761Z,-1.86
2023-02-27T05:27:14.846Z,-1.89
2023-02-27T05:32:49.904Z,-1.92
2023-02-27T05:38:21.076Z,-1.97
2023-02-27T05:43:31.105Z,-2.03
2023-02-27T05:48:43.139Z,-2.07
2023-02-27T05:53:53.310Z,-2.07
2023-02-27T05:59:24.272Z,-2.03
2023-02-27T06:04:27.590Z,-1.93
2023-02-27T06:09:30.892Z,-1.86
2023-02-27T06:14:33.897Z,-1.76
2023-02-27T06:19:36.903Z,-1.58
2023-02-27T06:24:40.006Z,-1.32
2023-02-27T06:29:43.010Z,-1.10
2023-02-27T06:34:46.211Z,-0.84
2023-02-27T06:39:49.418Z,-0.58
2023-02-27T06:44:52.628Z,-0.35
2023-02-27T06:49:55.627Z,-0.11
2023-02-27T06:54:59.758Z,0.15
2023-02-27T07:00:05.472Z,0.44
2023-02-27T07:05:12.232Z,0.98
2023-02-27T07:10:16.443Z,1.77
2023-02-27T07:15:19.552Z,2.14
2023-02-27T07:20:22.553Z,2.38
2023-02-27T07:25:25.668Z,2.57
2023-02-27T07:30:30.924Z,2.79
2023-02-27T07:35:34.330Z,2.94
2023-02-27T07:40:37.744Z,2.99
2023-02-27T07:45:41.162Z,3.21
2023-02-27T07:50:44.469Z,3.35
2023-02-27T07:55:47.879Z,3.27
2023-02-27T08:00:53.754Z,3.24
2023-02-27T08:05:56.968Z,3.18
2023-02-27T08:10:59.963Z,3.17
2023-02-27T08:16:03.207Z,3.13
2023-02-27T08:21:06.802Z,3.26
2023-02-27T08:26:09.890Z,3.45
2023-02-27T08:31:13.572Z,3.88
2023-02-27T08:36:17.023Z,4.09
2023-02-27T08:41:20.346Z,4.59
2023-02-27T08:46:23.443Z,5.37
2023-02-27T08:51:27.121Z,8.00
2023-02-27T08:56:30.873Z,12.11
2023-02-27T09:01:34.895Z,16.00
2023-02-27T09:06:38.314Z,19.08
2023-02-27T09:11:41.732Z,19.93
2023-02-27T09:16:45.601Z,20.00
2023-02-27T09:21:49.167Z,20.02
2023-02-27T09:26:52.784Z,20.39
2023-02-27T09:31:56.232Z,18.90
2023-02-27T09:37:01.523Z,17.25
2023-02-27T09:42:17.770Z,15.43
2023-02-27T09:47:28.888Z,14.35
2023-02-27T09:52:35.972Z,15.29
2023-02-27T09:57:52.278Z,17.67
2023-02-27T10:03:23.197Z,18.14
2023-02-27T10:08:38.426Z,16.33
2023-02-27T10:13:50.029Z,15.67
2023-02-27T10:18:58.569Z,14.47
2023-02-27T10:24:27.626Z,12.66
2023-02-27T10:29:43.074Z,10.19
2023-02-27T10:34:54.783Z,8.55
2023-02-27T10:40:06.343Z,7.09
2023-02-27T10:45:17.706Z,6.14
2023-02-27T10:50:25.602Z,5.64
2023-02-27T10:55:35.976Z,5.33
2023-02-27T11:00:39.482Z,4.94
2023-02-27T11:05:43.205Z,4.55
2023-02-27T11:10:57.380Z,4.65
2023-02-27T11:16:18.691Z,4.81
2023-02-27T11:21:25.871Z,4.74
2023-02-27T11:26:36.690Z,4.39
2023-02-27T11:31:44.234Z,4.33
2023-02-27T11:36:51.196Z,4.20
2023-02-27T11:41:56.974Z,4.25
2023-02-27T11:47:34.246Z,4.42
2023-02-27T11:52:57.448Z,4.40
2023-02-27T11:58:22.474Z,4.55
2023-02-27T12:03:48.438Z,4.68
2023-02-27T12:08:57.130Z,4.72
2023-02-27T12:14:18.470Z,4.76
2023-02-27T12:19:34.431Z,4.79
2023-02-27T12:24:53.984Z,4.82
2023-02-27T12:30:17.272Z,4.57
2023-02-27T12:35:28.425Z,4.21
2023-02-27T12:40:38.540Z,4.10
2023-02-27T12:45:42.418Z,4.16
2023-02-27T12:50:48.814Z,4.29
2023-02-27T12:56:20.911Z,4.14
2023-02-27T13:01:41.620Z,3.90
2023-02-27T13:07:02.959Z,3.89
2023-02-27T13:12:18.602Z,3.97
2023-02-27T13:17:28.474Z,4.00
2023-02-27T13:22:40.647Z,4.01
2023-02-27T13:27:53.067Z,4.07
2023-02-27T13:33:26.129Z,4.11
2023-02-27T13:38:54.888Z,4.07
2023-02-27T13:44:20.125Z,4.00
2023-02-27T13:49:29.678Z,3.91
2023-02-27T13:54:40.187Z,3.72
2023-02-27T14:00:01.898Z,3.63
2023-02-27T14:05:08.896Z,3.61
2023-02-27T14:10:25.408Z,3.65
2023-02-27T14:15:32.403Z,3.58
2023-02-27T14:20:36.221Z,3.51
2023-02-27T14:26:01.870Z,3.49
2023-02-27T14:31:32.709Z,3.51
2023-02-27T14:36:44.527Z,3.43
2023-02-27T14:42:27.093Z,3.26
2023-02-27T14:47:36.197Z,3.19
2023-02-27T14:52:44.119Z,3.15
2023-02-27T14:58:17.544Z,3.12
2023-02-27T15:03:26.661Z,3.00
2023-02-27T15:08:35.011Z,2.92
2023-02-27T15:13:40.064Z,2.86
2023-02-27T15:18:46.042Z,2.83
2023-02-27T15:24:00.511Z,2.81
2023-02-27T15:29:08.839Z,2.79
2023-02-27T15:34:14.929Z,2.76
2023-02-27T15:39:22.037Z,2.64
2023-02-27T15:44:30.541Z,2.44
2023-02-27T15:49:34.161Z,2.24
2023-02-27T15:54:37.165Z,2.06
2023-02-27T15:59:43.439Z,1.86
2023-02-27T16:04:47.583Z,1.66
2023-02-27T16:09:58.875Z,1.47
2023-02-27T16:15:27.463Z,1.24
2023-02-27T16:20:38.963Z,1.02
2023-02-27T16:25:59.174Z,0.79
2023-02-27T16:31:03.103Z,0.56
2023-02-27T16:36:21.907Z,0.36
2023-02-27T16:41:25.870Z,0.13
2023-02-27T16:46:31.495Z,-0.10
2023-02-27T16:51:35.869Z,-0.29
2023-02-27T16:56:40.977Z,-0.44
2023-02-27T17:01:45.385Z,-0.54
2023-02-27T17:06:49.829Z,-0.63
2023-02-27T17:11:53.547Z,-0.71
2023-02-27T17:16:58.567Z,-0.76
2023-02-27T17:22:02.624Z,-0.78
2023-02-27T17:27:06.519Z,-0.80
2023-02-27T17:32:11.920Z,-0.83
2023-02-27T17:37:15.729Z,-0.89
2023-02-27T17:42:19.763Z,-0.99
2023-02-27T17:47:23.279Z,-1.10
2023-02-27T17:52:27.608Z,-1.23
2023-02-27T17:57:31.234Z,-1.36
2023-02-27T18:02:36.320Z,-1.44
2023-02-27T18:07:40.607Z,-1.55
2023-02-27T18:12:43.934Z,-1.67
2023-02-27T18:17:47.433Z,-1.79
2023-02-27T18:22:50.951Z,-1.90
2023-02-27T18:27:58.437Z,-2.02
2023-02-27T18:33:01.977Z,-2.12
2023-02-27T18:38:05.180Z,-2.23
2023-02-27T18:43:11.083Z,-2.33
2023-02-27T18:48:17.738Z,-2.44
2023-02-27T18:53:21.874Z,-2.54
2023-02-27T18:58:26.100Z,-2.65
2023-02-27T19:03:30.197Z,-2.75
2023-02-27T19:08:34.835Z,-2.85
2023-02-27T19:13:39.103Z,-2.94
2023-02-27T19:18:43.247Z,-3.03
2023-02-27T19:23:48.557Z,-3.10
2023-02-27T19:28:54.548Z,-3.18
2023-02-27T19:33:58.381Z,-3.26
2023-02-27T19:39:03.491Z,-3.29
2023-02-27T19:44:08.077Z,-3.27
2023-02-27T19:49:11.590Z,-3.24
2023-02-27T19:54:17.144Z,-3.25
2023-02-27T19:59:25.776Z,-3.27
2023-02-27T20:04:30.227Z,-3.30
2023-02-27T20:09:34.462Z,-3.26
2023-02-27T20:14:38.279Z,-3.27
2023-02-27T20:19:42.417Z,-3.33
2023-02-27T20:24:46.618Z,-3.40
2023-02-27T20:29:57.536Z,-3.48
2023-02-27T20:35:01.144Z,-3.57
2023-02-27T20:40:09.169Z,-3.65
2023-02-27T20:45:15.333Z,-3.74
2023-02-27T20:50:19.998Z,-3.81
2023-02-27T20:55:25.038Z,-3.81
2023-02-27T21:00:33.482Z,-3.81
2023-02-27T21:05:37.805Z,-3.85
2023-02-27T21:10:41.833Z,-3.86
2023-02-27T21:15:45.911Z,-3.92
2023-02-27T21:20:49.068Z,-4.00
2023-02-27T21:25:52.801Z,-4.09
2023-02-27T21:30:55.908Z,-4.16
2023-02-27T21:35:59.232Z,-4.20
2023-02-27T21:41:10.414Z,-4.23
2023-02-27T21:46:14.974Z,-4.24
2023-02-27T21:51:33.013Z,-4.22
2023-02-27T21:56:41.363Z,-4.16
2023-02-27T22:01:47.680Z,-4.11
2023-02-27T22:06:52.352Z,-4.09
2023-02-27T22:11:55.762Z,-4.12
2023-02-27T22:16:58.966Z,-4.17
2023-02-27T22:22:02.079Z,-4.25
2023-02-27T22:27:06.048Z,-4.31
2023-02-27T22:32:09.119Z,-4.36
2023-02-27T22:37:15.377Z,-4.42
2023-02-27T22:42:18.393Z,-4.47
2023-02-27T22:47:21.693Z,-4.52
2023-02-27T22:52:24.911Z,-4.56
2023-02-27T22:57:28.107Z,-4.60
2023-02-27T23:02:33.673Z,-4.65
2023-02-27T23:07:36.886Z,-4.70
2023-02-27T23:12:39.886Z,-4.74
2023-02-27T23:17:52.941Z,-4.81
2023-02-27T23:23:01.145Z,-4.87
2023-02-27T23:28:05.583Z,-4.93
2023-02-27T23:33:08.589Z,-5.01
2023-02-27T23:38:11.894Z,-5.07
2023-02-27T23:43:15.511Z,-5.14
2023-02-27T23:48:21.995Z,-5.11
2023-02-27T23:53:25.102Z,-5.08
2023-02-27T23:58:28.006Z,-5.11
